createdAt,value
2022-11-25T00:03:32.005Z,9.23
2022-11-25T00:08:34.184Z,19.55
2022-11-25T00:13:37.153Z,8.88
2022-11-25T00:18:39.633Z,4.00
2022-11-25T00:23:41.748Z,3.67
2022-11-25T00:28:45.847Z,4.25
2022-11-25T00:33:48.151Z,3.65
2022-11-25T00:39:01.284Z,4.78
2022-11-25T00:44:36.303Z,5.15
2022-11-25T00:49:47.138Z,7.00
2022-11-25T00:54:49.705Z,6.40
2022-11-25T00:59:51.909Z,5.65
2022-11-25T01:04:54.057Z,5.68
2022-11-25T01:09:56.210Z,3.83
2022-11-25T01:14:58.292Z,3.20
2022-11-25T01:20:00.398Z,6.38
2022-11-25T01:25:02.490Z,3.20
2022-11-25T01:30:04.947Z,5.22
2022-11-25T01:35:07.434Z,4.88
2022-11-25T01:40:10.029Z,3.97
2022-11-25T01:45:28.379Z,3.22
2022-11-25T01:50:33.801Z,4.93
2022-11-25T01:55:36.291Z,4.32
2022-11-25T02:00:38.644Z,4.18
2022-11-25T02:05:52.501Z,2.10
2022-11-25T02:10:55.852Z,2.60
2022-11-25T02:15:58.160Z,3.03
2022-11-25T02:21:00.302Z,2.25
2022-11-25T02:26:02.551Z,4.15
2022-11-25T02:31:06.448Z,3.17
2022-11-25T02:36:21.200Z,2.65
2022-11-25T02:41:30.420Z,1.95
2022-11-25T02:46:32.522Z,1.92
2022-11-25T02:51:34.715Z,3.10
2022-11-25T02:56:37.146Z,3.40
2022-11-25T03:01:39.516Z,2.72
2022-11-25T03:06:41.673Z,1.70
2022-11-25T03:12:02.446Z,1.70
2022-11-25T03:17:04.559Z,2.00
2022-11-25T03:22:06.683Z,2.38
2022-11-25T03:27:08.852Z,2.42
2022-11-25T03:32:10.957Z,3.35
2022-11-25T03:37:12.755Z,3.05
2022-11-25T03:42:14.933Z,2.67
2022-11-25T03:47:17.044Z,2.38
2022-11-25T03:52:19.194Z,3.40
2022-11-25T03:57:21.353Z,3.88
2022-11-25T04:02:23.507Z,4.05
2022-11-25T04:07:26.020Z,2.58
2022-11-25T04:12:46.601Z,2.72
2022-11-25T04:17:48.687Z,2.40
2022-11-25T04:22:50.819Z,1.02
2022-11-25T04:27:53.013Z,1.40
2022-11-25T04:32:54.868Z,1.80
2022-11-25T04:37:56.934Z,2.92
2022-11-25T04:43:04.719Z,4.90
2022-11-25T04:48:09.662Z,4.80
2022-11-25T04:53:12.102Z,2.22
2022-11-25T04:58:14.431Z,1.92
2022-11-25T05:03:16.465Z,1.88
2022-11-25T05:08:18.522Z,1.63
2022-11-25T05:13:20.602Z,6.55
2022-11-25T05:18:22.764Z,8.07
2022-11-25T05:23:24.806Z,6.60
2022-11-25T05:28:27.480Z,5.35
2022-11-25T05:33:29.621Z,8.02
2022-11-25T05:38:31.829Z,4.90
2022-11-25T05:43:33.991Z,4.72
2022-11-25T05:48:36.324Z,16.73
2022-11-25T05:53:38.488Z,6.78
2022-11-25T05:58:40.636Z,4.85
2022-11-25T06:03:43.228Z,2.90
2022-11-25T06:08:45.513Z,4.65
2022-11-25T06:13:47.649Z,2.60
2022-11-25T06:18:50.063Z,3.10
2022-11-25T06:23:52.688Z,2.67
2022-11-25T06:28:56.323Z,2.00
2022-11-25T06:33:58.549Z,8.35
2022-11-25T06:39:00.672Z,4.13
2022-11-25T06:44:02.780Z,2.00
2022-11-25T06:49:04.832Z,2.00
2022-11-25T06:54:08.494Z,2.45
2022-11-25T06:59:10.613Z,7.20
2022-11-25T07:04:12.765Z,10.10
2022-11-25T07:09:14.853Z,12.77
2022-11-25T07:14:17.305Z,9.00
2022-11-25T07:19:19.746Z,4.43
2022-11-25T07:24:21.427Z,4.93
2022-11-25T07:34:46.873Z,7.53
2022-11-25T07:39:49.051Z,12.75
2022-11-25T07:44:51.198Z,10.27
2022-11-25T07:49:53.386Z,12.65
2022-11-25T07:54:55.503Z,8.60
2022-11-25T07:59:57.544Z,5.28
2022-11-25T08:04:59.647Z,7.38
2022-11-25T08:10:01.857Z,9.75
2022-11-25T08:15:04.205Z,7.10
2022-11-25T08:20:06.615Z,13.18
2022-11-25T08:25:08.543Z,11.57
2022-11-25T08:30:10.958Z,16.67
2022-11-25T08:35:13.026Z,11.68
2022-11-25T08:40:15.244Z,10.57
2022-11-25T08:45:17.353Z,10.68
2022-11-25T08:50:19.849Z,11.32
2022-11-25T08:55:22.214Z,13.10
2022-11-25T09:00:24.416Z,18.13
2022-11-25T09:05:26.111Z,11.30
2022-11-25T09:10:28.202Z,11.73
2022-11-25T09:15:29.864Z,12.05
2022-11-25T09:20:32.857Z,12.35
2022-11-25T09:25:35.557Z,9.43
2022-11-25T09:30:38.452Z,9.80
2022-11-25T09:35:40.568Z,14.93
2022-11-25T09:40:53.978Z,11.27
2022-11-25T09:46:23.207Z,9.95
2022-11-25T09:51:54.742Z,8.90
2022-11-25T09:57:17.677Z,8.55
2022-11-25T10:02:43.315Z,5.60
2022-11-25T10:07:51.369Z,4.05
2022-11-25T10:12:56.871Z,4.05
2022-11-25T10:18:03.128Z,6.15
2022-11-25T10:23:23.560Z,5.57
2022-11-25T10:28:33.563Z,7.07
2022-11-25T10:33:43.924Z,6.95
2022-11-25T10:38:55.014Z,8.52
2022-11-25T10:43:56.967Z,11.15
2022-11-25T10:49:17.455Z,11.80
2022-11-25T10:54:26.881Z,13.20
2022-11-25T10:59:36.023Z,11.05
2022-11-25T11:04:51.462Z,10.50
2022-11-25T11:09:53.718Z,12.57
2022-11-25T11:15:22.881Z,11.57
2022-11-25T11:20:30.743Z,9.70
2022-11-25T11:25:35.261Z,11.18
2022-11-25T11:30:37.040Z,10.27
2022-11-25T11:35:42.044Z,8.55
2022-11-25T11:40:50.445Z,17.52
2022-11-25T11:45:52.140Z,8.57
2022-11-25T11:51:13.141Z,7.03
2022-11-25T11:56:41.791Z,9.32
2022-11-25T12:02:04.788Z,15.73
2022-11-25T12:07:37.785Z,10.73
2022-11-25T12:17:53.463Z,9.68
2022-11-25T12:23:26.255Z,8.50
2022-11-25T12:28:38.467Z,8.68
2022-11-25T12:34:01.573Z,7.43
2022-11-25T12:39:31.717Z,7.28
2022-11-25T12:44:56.201Z,8.70
2022-11-25T12:49:58.269Z,12.82
2022-11-25T12:55:19.934Z,14.82
2022-11-25T13:00:43.417Z,7.88
2022-11-25T13:06:03.412Z,25.83
2022-11-25T13:11:19.762Z,9.90
2022-11-25T13:16:23.216Z,6.70
2022-11-25T13:21:27.437Z,5.13
2022-11-25T13:26:33.663Z,7.20
2022-11-25T13:32:05.309Z,6.63
2022-11-25T13:37:33.521Z,6.65
2022-11-25T13:42:44.240Z,6.20
2022-11-25T13:47:49.181Z,6.72
2022-11-25T13:53:02.732Z,8.32
2022-11-25T13:58:10.619Z,4.95
2022-11-25T14:03:21.315Z,4.88
2022-11-25T14:08:47.770Z,4.13
2022-11-25T14:14:08.084Z,9.80
2022-11-25T14:19:43.232Z,7.55
2022-11-25T14:24:37.404Z,4.65
2022-11-25T14:29:46.439Z,3.58
2022-11-25T14:35:15.412Z,4.32
2022-11-25T14:40:36.080Z,4.47
2022-11-25T14:45:38.161Z,5.55
2022-11-25T14:50:41.603Z,4.40
2022-11-25T14:55:48.762Z,9.27
2022-11-25T15:00:59.378Z,6.63
2022-11-25T15:06:07.404Z,6.13
2022-11-25T15:11:19.243Z,5.32
2022-11-25T15:16:25.070Z,6.00
2022-11-25T15:21:48.401Z,5.35
2022-11-25T15:27:00.305Z,5.25
2022-11-25T15:32:02.143Z,7.85
2022-11-25T15:37:03.909Z,9.30
2022-11-25T15:42:24.016Z,8.52
2022-11-25T15:47:28.542Z,8.93
2022-11-25T15:52:33.602Z,8.02
2022-11-25T15:57:37.963Z,7.68
2022-11-25T16:02:39.842Z,7.85
2022-11-25T16:07:53.635Z,6.60
2022-11-25T16:13:23.484Z,8.48
2022-11-25T16:19:06.544Z,13.20
2022-11-25T16:24:41.593Z,10.70
2022-11-25T16:29:52.476Z,29.90
2022-11-25T16:35:02.148Z,80.28
2022-11-25T16:40:04.496Z,16.05
2022-11-25T16:45:27.978Z,10.00
2022-11-25T16:50:30.221Z,7.07
2022-11-25T16:55:32.162Z,27.67
2022-11-25T17:00:40.296Z,12.70
2022-11-25T17:05:56.550Z,8.25
2022-11-25T17:10:59.640Z,6.82
2022-11-25T17:16:01.598Z,8.75
2022-11-25T17:21:03.427Z,13.10
2022-11-25T17:26:05.446Z,11.48
2022-11-25T17:31:07.719Z,11.43
2022-11-25T17:36:11.080Z,13.48
2022-11-25T17:41:15.001Z,10.70
2022-11-25T17:46:17.611Z,17.30
2022-11-25T17:51:19.397Z,13.10
2022-11-25T17:56:27.076Z,14.77
2022-11-25T18:01:28.976Z,19.10
2022-11-25T18:06:30.767Z,35.83
2022-11-25T18:11:32.546Z,19.52
2022-11-25T18:16:35.506Z,14.80
2022-11-25T18:21:37.370Z,14.85
2022-11-25T18:26:47.886Z,10.02
2022-11-25T18:31:50.722Z,11.10
2022-11-25T18:36:53.684Z,14.13
2022-11-25T18:41:58.244Z,14.60
2022-11-25T18:47:00.021Z,19.83
2022-11-25T18:52:01.793Z,20.05
2022-11-25T18:57:04.136Z,12.27
2022-11-25T19:02:16.142Z,9.48
2022-11-25T19:07:17.953Z,14.70
2022-11-25T19:12:21.003Z,15.57
2022-11-25T19:17:24.353Z,21.10
2022-11-25T19:22:26.089Z,14.88
2022-11-25T19:27:28.744Z,13.93
2022-11-25T19:32:31.510Z,16.13
2022-11-25T19:37:33.420Z,16.73
2022-11-25T19:42:35.194Z,15.30
2022-11-25T19:47:37.049Z,17.88
2022-11-25T19:52:39.963Z,17.25
2022-11-25T19:57:42.219Z,15.65
2022-11-25T20:02:47.578Z,14.48
2022-11-25T20:07:49.549Z,17.77
2022-11-25T20:12:51.927Z,44.83
2022-11-25T20:17:58.503Z,20.15
2022-11-25T20:23:06.760Z,21.13
2022-11-25T20:28:23.398Z,18.50
2022-11-25T20:33:26.543Z,15.23
2022-11-25T20:38:30.224Z,18.50
2022-11-25T20:43:42.622Z,60.17
2022-11-25T20:48:45.213Z,76.25
2022-11-25T20:53:52.858Z,17.85
2022-11-25T20:58:54.764Z,7.47
2022-11-25T21:03:56.800Z,12.93
2022-11-25T21:09:01.094Z,9.75
2022-11-25T21:14:02.895Z,11.52
2022-11-25T21:19:04.793Z,13.38
2022-11-25T21:24:19.825Z,14.82
2022-11-25T21:29:22.074Z,14.10
2022-11-25T21:34:23.903Z,73.53
2022-11-25T21:39:34.033Z,43.75
2022-11-25T21:44:41.067Z,19.55
2022-11-25T21:49:43.099Z,11.43
2022-11-25T21:54:45.344Z,25.27
2022-11-25T21:59:47.867Z,21.50
2022-11-25T22:04:50.673Z,21.33
2022-11-25T22:09:52.407Z,16.27
2022-11-25T22:14:55.124Z,25.70
2022-11-25T22:19:57.422Z,23.35
2022-11-25T22:24:59.375Z,28.17
2022-11-25T22:30:01.393Z,14.05
2022-11-25T22:35:06.135Z,9.82
2022-11-25T22:40:08.618Z,13.90
2022-11-25T22:45:29.924Z,17.92
2022-11-25T22:50:34.181Z,17.33
2022-11-25T22:55:36.301Z,21.02
2022-11-25T23:00:42.681Z,33.13
2022-11-25T23:05:44.593Z,35.75
2022-11-25T23:10:47.740Z,24.83
2022-11-25T23:15:58.153Z,24.35
2022-11-25T23:21:00.107Z,22.02
2022-11-25T23:26:02.098Z,23.08
2022-11-25T23:31:04.954Z,22.15
2022-11-25T23:36:09.204Z,19.23
2022-11-25T23:41:25.363Z,22.90
2022-11-25T23:46:32.581Z,20.83
2022-11-25T23:51:34.408Z,15.50
2022-11-25T23:56:37.031Z,12.88
